createdAt,value
2022-12-11T00:00:38.104Z,-0.03
2022-12-11T00:03:30.277Z,0.42
2022-12-11T00:06:02.744Z,0.46
2022-12-11T00:08:34.902Z,0.92
2022-12-11T00:11:12.432Z,0.67
2022-12-11T00:13:45.091Z,0.66
2022-12-11T00:16:19.535Z,0.56
2022-12-11T00:18:54.790Z,0.34
2022-12-11T00:21:51.202Z,0.71
2022-12-11T00:24:30.121Z,0.82
2022-12-11T00:27:04.933Z,0.70
2022-12-11T00:29:38.055Z,0.64
2022-12-11T00:32:13.070Z,0.72
2022-12-11T00:34:49.262Z,-0.23
2022-12-11T00:37:21.888Z,-0.23
2022-12-11T00:39:57.097Z,-0.10
2022-12-11T00:42:33.149Z,0.03
2022-12-11T00:45:04.767Z,0.23
2022-12-11T00:47:37.147Z,-0.33
2022-12-11T00:50:10.239Z,0.05
2022-12-11T00:52:42.790Z,-0.45
2022-12-11T00:55:16.109Z,-0.06
2022-12-11T00:57:51.004Z,0.17
2022-12-11T01:00:23.125Z,0.49
2022-12-11T01:02:56.104Z,0.84
2022-12-11T01:05:27.781Z,1.04
2022-12-11T01:08:00.137Z,0.96
2022-12-11T01:10:32.039Z,1.07
2022-12-11T01:13:10.082Z,0.29
2022-12-11T01:15:46.299Z,0.30
2022-12-11T01:18:20.284Z,-0.40
2022-12-11T01:20:52.071Z,-0.17
2022-12-11T01:23:43.579Z,-0.39
2022-12-11T01:26:18.701Z,-0.42
2022-12-11T01:28:56.222Z,0.01
2022-12-11T01:31:28.339Z,0.07
2022-12-11T01:34:00.576Z,0.38
2022-12-11T01:36:32.405Z,0.37
2022-12-11T01:39:26.560Z,0.65
2022-12-11T01:42:04.648Z,0.80
2022-12-11T01:45:21.533Z,0.57
2022-12-11T01:48:11.367Z,0.45
2022-12-11T01:50:50.960Z,0.69
2022-12-11T01:53:28.147Z,0.33
2022-12-11T01:56:02.960Z,0.51
2022-12-11T01:58:43.504Z,0.23
2022-12-11T02:01:22.383Z,-0.16
2022-12-11T02:03:59.148Z,0.02
2022-12-11T02:06:42.816Z,0.24
2022-12-11T02:09:20.350Z,-0.27
2022-12-11T02:12:05.021Z,-0.34
2022-12-11T02:14:43.151Z,-0.04
2022-12-11T02:17:20.972Z,0.09
2022-12-11T02:20:06.856Z,-0.15
2022-12-11T02:23:15.852Z,-0.20
2022-12-11T02:26:00.604Z,0.11
2022-12-11T02:28:43.919Z,-0.30
2022-12-11T02:31:23.536Z,-0.30
2022-12-11T02:34:01.648Z,0.33
2022-12-11T02:36:43.320Z,-0.45
2022-12-11T02:39:19.162Z,-0.61
2022-12-11T02:41:54.203Z,-0.62
2022-12-11T02:44:33.578Z,-0.50
2022-12-11T02:47:09.681Z,-0.30
2022-12-11T02:49:50.765Z,-0.64
2022-12-11T02:52:25.886Z,-0.15
2022-12-11T02:55:04.439Z,-0.11
2022-12-11T02:57:43.495Z,-0.12
2022-12-11T03:00:19.174Z,-0.33
2022-12-11T03:02:52.148Z,-0.37
2022-12-11T03:05:24.484Z,-0.03
2022-12-11T03:07:56.006Z,-0.14
2022-12-11T03:10:28.029Z,-0.14
2022-12-11T03:13:02.458Z,-0.51
2022-12-11T03:15:45.204Z,-0.84
2022-12-11T03:18:23.680Z,-0.91
2022-12-11T03:21:07.484Z,-0.82
2022-12-11T03:23:44.689Z,-0.66
2022-12-11T03:26:19.430Z,-0.80
2022-12-11T03:28:59.579Z,-0.64
2022-12-11T03:31:42.496Z,0.01
2022-12-11T03:34:21.739Z,-0.38
2022-12-11T03:36:56.258Z,-0.63
2022-12-11T03:39:34.157Z,-0.73
2022-12-11T03:42:11.870Z,-0.30
2022-12-11T03:44:47.458Z,-0.04
2022-12-11T03:47:25.449Z,-0.31
2022-12-11T03:49:58.694Z,-0.89
2022-12-11T03:52:32.737Z,-0.72
2022-12-11T03:55:07.052Z,-0.46
2022-12-11T03:57:40.936Z,-0.04
2022-12-11T04:00:16.776Z,-0.55
2022-12-11T04:03:11.203Z,-0.61
2022-12-11T04:05:45.476Z,-0.45
2022-12-11T04:08:17.439Z,-0.48
2022-12-11T04:10:48.822Z,-0.63
2022-12-11T04:16:37.524Z,-0.25
2022-12-11T04:19:24.896Z,0.12
2022-12-11T04:22:08.658Z,-0.11
2022-12-11T04:24:40.790Z,0.55
2022-12-11T04:27:12.716Z,0.66
2022-12-11T04:29:47.155Z,0.65
2022-12-11T04:32:18.855Z,0.89
2022-12-11T04:34:58.602Z,-0.16
2022-12-11T04:37:31.135Z,-0.59
2022-12-11T04:40:04.208Z,-0.80
2022-12-11T04:42:36.049Z,-0.83
2022-12-11T04:45:11.318Z,-0.62
2022-12-11T04:47:44.445Z,-0.61
2022-12-11T04:50:19.749Z,-0.56
2022-12-11T04:52:51.781Z,-0.12
2022-12-11T04:55:24.306Z,0.03
2022-12-11T04:57:56.346Z,-0.36
2022-12-11T05:00:28.726Z,-0.30
2022-12-11T05:03:00.511Z,-0.32
2022-12-11T05:05:35.535Z,-0.57
2022-12-11T05:08:08.494Z,-0.86
2022-12-11T05:10:43.424Z,-1.08
2022-12-11T05:13:17.967Z,-0.82
2022-12-11T05:15:50.293Z,-1.09
2022-12-11T05:18:22.195Z,-1.07
2022-12-11T05:21:02.822Z,-1.01
2022-12-11T05:23:34.404Z,-0.82
2022-12-11T05:26:08.488Z,-0.81
2022-12-11T05:28:41.901Z,-1.14
2022-12-11T05:31:17.510Z,-1.21
2022-12-11T05:33:50.987Z,-0.95
2022-12-11T05:36:28.317Z,-0.61
2022-12-11T05:39:01.487Z,-0.54
2022-12-11T05:41:35.045Z,-0.83
2022-12-11T05:44:06.756Z,-0.46
2022-12-11T05:46:38.732Z,-0.19
2022-12-11T05:49:10.519Z,0.01
2022-12-11T05:51:45.093Z,0.10
2022-12-11T05:54:16.814Z,-0.36
2022-12-11T05:56:48.914Z,-0.49
2022-12-11T05:59:21.963Z,-0.37
2022-12-11T06:01:53.911Z,-0.17
2022-12-11T06:04:25.498Z,0.27
2022-12-11T06:07:00.472Z,0.15
2022-12-11T06:09:31.905Z,0.26
2022-12-11T06:12:03.926Z,0.17
2022-12-11T06:14:35.409Z,-0.01
2022-12-11T06:17:07.669Z,-0.36
2022-12-11T06:19:39.042Z,-0.46
2022-12-11T06:22:13.539Z,-0.17
2022-12-11T06:24:45.254Z,-0.10
2022-12-11T06:27:19.350Z,0.02
2022-12-11T06:29:50.983Z,0.09
2022-12-11T06:32:22.729Z,0.13
2022-12-11T06:34:54.159Z,-0.17
2022-12-11T06:37:28.743Z,-0.36
2022-12-11T06:39:59.952Z,-0.12
2022-12-11T06:42:33.127Z,-0.39
2022-12-11T06:45:04.923Z,-0.17
2022-12-11T06:47:36.560Z,-0.20
2022-12-11T06:50:08.629Z,-0.26
2022-12-11T06:52:43.428Z,-0.46
2022-12-11T06:55:14.902Z,-0.12
2022-12-11T06:57:46.996Z,0.05
2022-12-11T07:00:19.890Z,-0.57
2022-12-11T07:02:53.996Z,-0.58
2022-12-11T07:05:25.747Z,-0.33
2022-12-11T07:08:00.983Z,-0.63
2022-12-11T07:10:32.601Z,-1.04
2022-12-11T07:13:04.422Z,-1.02
2022-12-11T07:15:40.211Z,-0.97
2022-12-11T07:18:13.232Z,-0.85
2022-12-11T07:20:44.996Z,-0.62
2022-12-11T07:23:19.560Z,-1.07
2022-12-11T07:25:51.214Z,-1.16
2022-12-11T07:28:23.547Z,-1.33
2022-12-11T07:30:55.228Z,-1.51
2022-12-11T07:33:27.105Z,-0.98
2022-12-11T07:35:58.520Z,-0.88
2022-12-11T07:38:33.512Z,-1.00
2022-12-11T07:41:05.513Z,-1.09
2022-12-11T07:43:38.305Z,-1.30
2022-12-11T07:46:12.564Z,-0.95
2022-12-11T07:48:46.138Z,-0.93
2022-12-11T07:51:19.846Z,-0.72
2022-12-11T07:53:54.576Z,-0.87
2022-12-11T07:56:26.477Z,-0.69
2022-12-11T07:58:58.247Z,-0.91
2022-12-11T08:01:31.669Z,-0.94
2022-12-11T08:04:04.001Z,-0.76
2022-12-11T08:06:38.366Z,-0.61
2022-12-11T08:09:21.230Z,-0.79
2022-12-11T08:11:53.928Z,-0.40
2022-12-11T08:14:25.872Z,-0.20
2022-12-11T08:16:58.160Z,-0.42
2022-12-11T08:19:30.699Z,-0.69
2022-12-11T08:22:01.870Z,-0.65
2022-12-11T08:24:36.084Z,-0.37
2022-12-11T08:27:07.480Z,-0.30
2022-12-11T08:29:38.920Z,-0.28
2022-12-11T08:32:12.487Z,-0.65
2022-12-11T08:34:44.390Z,-0.20
2022-12-11T08:37:15.599Z,-0.26
2022-12-11T08:39:50.221Z,-0.38
2022-12-11T08:42:21.674Z,-0.07
2022-12-11T08:44:53.396Z,0.01
2022-12-11T08:47:24.680Z,-0.27
2022-12-11T08:49:57.115Z,-0.10
2022-12-11T08:52:28.330Z,0.20
2022-12-11T08:55:02.175Z,0.31
2022-12-11T15:09:00.445Z,-0.01
2022-12-11T15:12:14.895Z,0.01
2022-12-11T15:14:53.836Z,-0.54
2022-12-11T15:17:27.596Z,-0.24
2022-12-11T15:20:07.534Z,-0.32
2022-12-11T15:22:40.337Z,0.23
2022-12-11T15:25:31.819Z,0.50
2022-12-11T15:28:06.976Z,0.23
2022-12-11T15:30:39.697Z,0.14
2022-12-11T15:33:34.798Z,0.20
2022-12-11T15:36:09.776Z,0.23
2022-12-11T15:38:43.737Z,0.26
2022-12-11T15:41:21.376Z,-0.13
2022-12-11T15:43:59.086Z,0.09
2022-12-11T15:46:31.029Z,0.22
2022-12-11T15:49:02.211Z,0.17
2022-12-11T15:51:34.500Z,0.40
2022-12-11T15:54:08.432Z,-0.29
2022-12-11T15:56:40.094Z,-0.02
2022-12-11T15:59:14.717Z,0.61
2022-12-11T16:01:46.724Z,0.69
2022-12-11T16:04:18.030Z,0.62
2022-12-11T16:06:49.486Z,0.09
2022-12-11T16:09:26.167Z,-0.29
2022-12-11T16:11:57.616Z,-0.57
2022-12-11T16:14:32.977Z,0.01
2022-12-11T16:17:05.016Z,0.30
2022-12-11T16:19:37.415Z,0.22
2022-12-11T16:22:11.377Z,0.63
2022-12-11T16:24:44.556Z,0.83
2022-12-11T16:27:22.816Z,0.62
2022-12-11T16:29:57.887Z,-0.19
2022-12-11T16:32:30.040Z,0.09
2022-12-11T16:35:06.126Z,-0.25
2022-12-11T16:37:38.309Z,-0.35
2022-12-11T16:40:11.785Z,-0.30
2022-12-11T16:42:47.158Z,-0.24
2022-12-11T16:46:14.647Z,-0.14
2022-12-11T16:49:41.914Z,-0.37
2022-12-11T16:52:28.916Z,-0.55
2022-12-11T16:55:01.655Z,-0.14
2022-12-11T16:57:34.923Z,-0.05
2022-12-11T17:00:09.194Z,0.22
2022-12-11T17:02:41.677Z,0.17
2022-12-11T17:05:17.036Z,0.20
2022-12-11T17:07:49.211Z,-0.28
2022-12-11T17:10:21.957Z,0.03
2022-12-11T17:12:54.297Z,-0.31
2022-12-11T17:15:26.915Z,-0.28
2022-12-11T17:17:59.175Z,-0.04
2022-12-11T17:20:34.657Z,-0.04
2022-12-11T17:23:06.914Z,-0.23
2022-12-11T17:25:42.636Z,-0.13
2022-12-11T17:28:15.915Z,0.30
2022-12-11T17:30:50.534Z,0.43
2022-12-11T17:33:22.656Z,0.13
2022-12-11T17:35:58.115Z,-0.46
2022-12-11T17:38:30.436Z,-0.38
2022-12-11T17:41:03.155Z,0.18
2022-12-11T17:43:35.556Z,-0.08
2022-12-11T17:46:08.648Z,0.05
2022-12-11T17:48:41.136Z,-0.09
2022-12-11T17:51:21.473Z,0.05
2022-12-11T17:53:53.937Z,0.40
2022-12-11T17:56:27.196Z,-0.03
2022-12-11T17:58:59.060Z,0.17
2022-12-11T18:01:31.176Z,0.31
2022-12-11T18:04:05.312Z,-0.24
2022-12-11T18:06:39.931Z,0.19
2022-12-11T18:09:11.575Z,0.30
2022-12-11T18:11:43.848Z,0.39
2022-12-11T18:14:17.613Z,0.17
2022-12-11T18:16:50.087Z,-0.22
2022-12-11T18:19:23.045Z,-0.27
2022-12-11T18:21:58.148Z,0.05
2022-12-11T18:24:35.115Z,0.39
2022-12-11T18:27:10.812Z,0.27
2022-12-11T18:29:42.401Z,0.01
2022-12-11T18:32:14.491Z,0.23
2022-12-11T18:34:46.167Z,0.42
2022-12-11T18:37:26.226Z,0.65
2022-12-11T18:39:59.478Z,0.26
2022-12-11T18:42:33.194Z,0.19
2022-12-11T18:45:07.285Z,0.19
2022-12-11T18:47:40.226Z,0.49
2022-12-11T18:50:12.299Z,-0.19
2022-12-11T18:52:46.859Z,0.02
2022-12-11T18:55:18.328Z,0.27
2022-12-11T18:57:50.530Z,0.29
2022-12-11T19:00:23.376Z,-0.17
2022-12-11T19:02:55.636Z,0.28
2022-12-11T19:05:27.128Z,0.35
2022-12-11T19:08:01.450Z,0.24
2022-12-11T19:10:32.956Z,0.53
2022-12-11T19:13:04.526Z,0.28
2022-12-11T19:15:36.117Z,-0.15
2022-12-11T19:18:07.981Z,-0.23
2022-12-11T19:20:56.757Z,-0.48
2022-12-11T19:23:38.008Z,0.21
2022-12-11T19:26:13.786Z,0.07
2022-12-11T19:28:45.511Z,0.18
2022-12-11T19:31:19.811Z,-0.37
2022-12-11T19:33:52.427Z,-0.15
2022-12-11T19:36:25.970Z,-0.38
2022-12-11T19:39:02.129Z,-0.95
2022-12-11T19:41:34.938Z,-0.58
2022-12-11T19:44:07.659Z,-0.20
2022-12-11T19:46:39.650Z,0.39
2022-12-11T19:49:11.595Z,-0.02
2022-12-11T19:51:45.068Z,-0.62
2022-12-11T19:54:21.431Z,0.00
2022-12-11T19:56:53.856Z,0.19
2022-12-11T19:59:25.732Z,0.17
2022-12-11T20:01:57.311Z,-0.24
2022-12-11T20:04:29.386Z,-0.24
2022-12-11T20:07:01.424Z,0.09
2022-12-11T20:09:36.815Z,-0.10
2022-12-11T20:12:10.929Z,-0.81
2022-12-11T20:14:42.782Z,-0.67
2022-12-11T20:17:15.234Z,-0.58
2022-12-11T20:19:47.435Z,-0.85
2022-12-11T20:22:19.132Z,-0.64
2022-12-11T20:24:53.724Z,-0.20
2022-12-11T20:27:26.570Z,-0.56
2022-12-11T20:29:58.103Z,-0.25
2022-12-11T20:32:30.474Z,-0.36
2022-12-11T20:35:02.573Z,-0.68
2022-12-11T20:37:34.285Z,-0.84
2022-12-11T20:40:10.397Z,-0.48
2022-12-11T20:42:41.846Z,-0.24
2022-12-11T20:45:14.514Z,-0.46
2022-12-11T20:47:46.854Z,0.30
2022-12-11T20:50:18.598Z,0.02
2022-12-11T20:52:50.057Z,0.13
2022-12-11T20:55:26.638Z,0.43
2022-12-11T20:57:57.799Z,0.47
2022-12-11T21:00:32.500Z,-0.30
2022-12-11T21:03:04.332Z,-0.29
2022-12-11T21:05:37.184Z,-0.11
2022-12-11T21:08:09.750Z,0.12
2022-12-11T21:10:48.275Z,0.14
2022-12-11T21:13:20.692Z,0.09
2022-12-11T21:15:57.017Z,0.30
2022-12-11T21:18:29.456Z,0.17
2022-12-11T21:21:02.019Z,0.16
2022-12-11T21:23:34.493Z,0.47
2022-12-11T21:26:10.274Z,0.61
2022-12-11T21:28:42.593Z,-0.37
2022-12-11T21:31:17.634Z,-0.49
2022-12-11T21:33:50.533Z,-0.24
2022-12-11T21:36:23.162Z,0.18
2022-12-11T21:38:56.033Z,-0.14
2022-12-11T21:41:37.580Z,0.30
2022-12-11T21:47:01.813Z,0.77
2022-12-11T21:49:44.606Z,1.00
2022-12-11T21:52:21.019Z,1.14
2022-12-11T21:54:56.728Z,0.86
2022-12-11T21:57:37.322Z,0.30
2022-12-11T22:00:11.187Z,0.59
2022-12-11T22:02:44.043Z,0.59
2022-12-11T22:05:16.585Z,0.66
2022-12-11T22:07:49.106Z,0.72
2022-12-11T22:10:21.108Z,0.94
2022-12-11T22:12:56.269Z,0.59
2022-12-11T22:15:28.288Z,0.40
2022-12-11T22:18:00.365Z,0.34
2022-12-11T22:20:33.787Z,0.41
2022-12-11T22:23:06.147Z,0.30
2022-12-11T22:25:38.247Z,0.52
2022-12-11T22:28:13.126Z,0.68
2022-12-11T22:30:45.574Z,0.61
2022-12-11T22:33:18.507Z,0.60
2022-12-11T22:35:50.587Z,0.55
2022-12-11T22:38:23.167Z,0.49
2022-12-11T22:40:56.025Z,0.45
2022-12-11T22:43:31.106Z,0.66
2022-12-11T22:46:03.213Z,0.50
2022-12-11T22:48:35.767Z,0.45
2022-12-11T22:51:08.909Z,0.16
2022-12-11T22:53:41.445Z,0.35
2022-12-11T22:56:15.688Z,0.00
2022-12-11T22:58:50.869Z,0.29
2022-12-11T23:01:26.527Z,0.35
2022-12-11T23:03:58.885Z,-0.21
2022-12-11T23:06:30.807Z,-0.29
2022-12-11T23:09:04.427Z,-0.50
2022-12-11T23:11:39.697Z,0.05
2022-12-11T23:14:19.287Z,0.17
2022-12-11T23:16:51.198Z,-0.47
2022-12-11T23:19:25.707Z,-0.24
2022-12-11T23:21:58.836Z,-0.78
2022-12-11T23:24:31.146Z,-0.41
2022-12-11T23:27:03.585Z,0.12
2022-12-11T23:29:39.266Z,0.11
2022-12-11T23:32:13.308Z,0.39
2022-12-11T23:34:45.625Z,0.45
2022-12-11T23:37:18.167Z,0.55
2022-12-11T23:39:52.207Z,0.67
2022-12-11T23:42:27.265Z,0.02
2022-12-11T23:45:06.016Z,0.17
2022-12-11T23:47:49.205Z,0.49
2022-12-11T23:50:22.443Z,0.94
2022-12-11T23:52:55.662Z,0.47
2022-12-11T23:55:28.434Z,0.65
2022-12-11T23:58:00.206Z,0.59
